<?xml version="1.0" encoding="UTF-8" standalone="no" ?>
<gpx xmlns="http://www.topografix.com/GPX/1/1" xmlns:xsi="http://www.w3.org/2001/XMLSchema-instance" xsi:schemaLocation="http://www.topografix.com/GPX/1/1 http://www.topografix.com/GPX/1/1/gpx.xsd" version="1.1" creator="VisuGPX - https://www.visugpx.com">
  <metadata>
    <name>Cantal</name>
  </metadata>
  <trk>
    <name><![CDATA[Vous suivez roc Hozières puy Chavaroche (Cantal)]]></name>
    <extensions>
      <line xmlns="http://www.topografix.com/GPX/gpx_style/0/2">
        <color>0000FF</color>
        <width>4</width>
      </line>
    </extensions>
    <trkseg>
      <trkpt lat="45.11308" lon="2.64189">
        <ele>1573</ele>
        <time>2020-09-14T16:39:42Z</time>
      </trkpt>
      <trkpt lat="45.11308" lon="2.64178">
        <ele>1581</ele>
        <time>2020-09-14T16:40:16Z</time>
      </trkpt>
      <trkpt lat="45.113" lon="2.64174">
        <ele>1579</ele>
        <time>2020-09-14T16:40:27Z</time>
      </trkpt>
      <trkpt lat="45.11292" lon="2.6418">
        <ele>1578</ele>
        <time>2020-09-14T16:40:41Z</time>
      </trkpt>
      <trkpt lat="45.11285" lon="2.64186">
        <ele>1577</ele>
        <time>2020-09-14T16:40:51Z</time>
      </trkpt>
      <trkpt lat="45.11277" lon="2.6419">
        <ele>1576</ele>
        <time>2020-09-14T16:41:03Z</time>
      </trkpt>
      <trkpt lat="45.11271" lon="2.64196">
        <ele>1574</ele>
        <time>2020-09-14T16:41:12Z</time>
      </trkpt>
      <trkpt lat="45.11262" lon="2.64199">
        <ele>1574</ele>
        <time>2020-09-14T16:41:20Z</time>
      </trkpt>
      <trkpt lat="45.11254" lon="2.64198">
        <ele>1575</ele>
        <time>2020-09-14T16:41:30Z</time>
      </trkpt>
      <trkpt lat="45.11245" lon="2.64196">
        <ele>1575</ele>
        <time>2020-09-14T16:41:43Z</time>
      </trkpt>
      <trkpt lat="45.11238" lon="2.64202">
        <ele>1576</ele>
        <time>2020-09-14T16:41:52Z</time>
      </trkpt>
      <trkpt lat="45.11229" lon="2.64202">
        <ele>1576</ele>
        <time>2020-09-14T16:42:05Z</time>
      </trkpt>
      <trkpt lat="45.11222" lon="2.64208">
        <ele>1578</ele>
        <time>2020-09-14T16:42:17Z</time>
      </trkpt>
      <trkpt lat="45.11215" lon="2.64213">
        <ele>1579</ele>
        <time>2020-09-14T16:42:29Z</time>
      </trkpt>
      <trkpt lat="45.11206" lon="2.64213">
        <ele>1580</ele>
        <time>2020-09-14T16:42:44Z</time>
      </trkpt>
      <trkpt lat="45.11199" lon="2.64219">
        <ele>1580</ele>
        <time>2020-09-14T16:43:06Z</time>
      </trkpt>
      <trkpt lat="45.11194" lon="2.64228">
        <ele>1579</ele>
        <time>2020-09-14T16:43:19Z</time>
      </trkpt>
      <trkpt lat="45.11189" lon="2.64239">
        <ele>1578</ele>
        <time>2020-09-14T16:43:33Z</time>
      </trkpt>
      <trkpt lat="45.11186" lon="2.6425">
        <ele>1577</ele>
        <time>2020-09-14T16:43:45Z</time>
      </trkpt>
      <trkpt lat="45.1118" lon="2.64258">
        <ele>1575</ele>
        <time>2020-09-14T16:43:57Z</time>
      </trkpt>
      <trkpt lat="45.11172" lon="2.64263">
        <ele>1574</ele>
        <time>2020-09-14T16:44:07Z</time>
      </trkpt>
      <trkpt lat="45.11166" lon="2.64271">
        <ele>1574</ele>
        <time>2020-09-14T16:44:23Z</time>
      </trkpt>
      <trkpt lat="45.11158" lon="2.64276">
        <ele>1574</ele>
        <time>2020-09-14T16:44:32Z</time>
      </trkpt>
      <trkpt lat="45.11152" lon="2.64286">
        <ele>1574</ele>
        <time>2020-09-14T16:44:45Z</time>
      </trkpt>
      <trkpt lat="45.11144" lon="2.64291">
        <ele>1576</ele>
        <time>2020-09-14T16:44:57Z</time>
      </trkpt>
      <trkpt lat="45.11138" lon="2.64297">
        <ele>1576</ele>
        <time>2020-09-14T16:45:09Z</time>
      </trkpt>
      <trkpt lat="45.11131" lon="2.64303">
        <ele>1576</ele>
        <time>2020-09-14T16:45:21Z</time>
      </trkpt>
      <trkpt lat="45.11122" lon="2.64305">
        <ele>1576</ele>
        <time>2020-09-14T16:45:36Z</time>
      </trkpt>
      <trkpt lat="45.11113" lon="2.64307">
        <ele>1577</ele>
        <time>2020-09-14T16:45:54Z</time>
      </trkpt>
      <trkpt lat="45.11104" lon="2.64309">
        <ele>1579</ele>
        <time>2020-09-14T16:46:20Z</time>
      </trkpt>
      <trkpt lat="45.11096" lon="2.64315">
        <ele>1579</ele>
        <time>2020-09-14T16:46:37Z</time>
      </trkpt>
      <trkpt lat="45.11092" lon="2.64325">
        <ele>1579</ele>
        <time>2020-09-14T16:46:53Z</time>
      </trkpt>
      <trkpt lat="45.11085" lon="2.64329">
        <ele>1579</ele>
        <time>2020-09-14T16:47:03Z</time>
      </trkpt>
      <trkpt lat="45.11078" lon="2.64336">
        <ele>1577</ele>
        <time>2020-09-14T16:47:15Z</time>
      </trkpt>
      <trkpt lat="45.1107" lon="2.64337">
        <ele>1575</ele>
        <time>2020-09-14T16:47:25Z</time>
      </trkpt>
      <trkpt lat="45.11064" lon="2.64346">
        <ele>1575</ele>
        <time>2020-09-14T16:47:39Z</time>
      </trkpt>
      <trkpt lat="45.11055" lon="2.6435">
        <ele>1574</ele>
        <time>2020-09-14T16:47:50Z</time>
      </trkpt>
      <trkpt lat="45.11047" lon="2.64353">
        <ele>1574</ele>
        <time>2020-09-14T16:48:03Z</time>
      </trkpt>
      <trkpt lat="45.11041" lon="2.64362">
        <ele>1571</ele>
        <time>2020-09-14T16:48:19Z</time>
      </trkpt>
      <trkpt lat="45.11033" lon="2.64365">
        <ele>1570</ele>
        <time>2020-09-14T16:48:33Z</time>
      </trkpt>
      <trkpt lat="45.11026" lon="2.64371">
        <ele>1569</ele>
        <time>2020-09-14T16:48:44Z</time>
      </trkpt>
      <trkpt lat="45.11018" lon="2.64374">
        <ele>1569</ele>
        <time>2020-09-14T16:48:53Z</time>
      </trkpt>
      <trkpt lat="45.1101" lon="2.64378">
        <ele>1569</ele>
        <time>2020-09-14T16:49:04Z</time>
      </trkpt>
      <trkpt lat="45.11002" lon="2.64383">
        <ele>1569</ele>
        <time>2020-09-14T16:49:12Z</time>
      </trkpt>
      <trkpt lat="45.10995" lon="2.64391">
        <ele>1568</ele>
        <time>2020-09-14T16:49:19Z</time>
      </trkpt>
      <trkpt lat="45.10989" lon="2.64399">
        <ele>1570</ele>
        <time>2020-09-14T16:49:28Z</time>
      </trkpt>
      <trkpt lat="45.10983" lon="2.64405">
        <ele>1568</ele>
        <time>2020-09-14T16:49:35Z</time>
      </trkpt>
      <trkpt lat="45.10975" lon="2.6441">
        <ele>1566</ele>
        <time>2020-09-14T16:49:46Z</time>
      </trkpt>
      <trkpt lat="45.10968" lon="2.64418">
        <ele>1563</ele>
        <time>2020-09-14T16:49:56Z</time>
      </trkpt>
      <trkpt lat="45.1096" lon="2.64423">
        <ele>1562</ele>
        <time>2020-09-14T16:50:05Z</time>
      </trkpt>
      <trkpt lat="45.10954" lon="2.64429">
        <ele>1562</ele>
        <time>2020-09-14T16:50:13Z</time>
      </trkpt>
      <trkpt lat="45.10948" lon="2.64436">
        <ele>1562</ele>
        <time>2020-09-14T16:50:20Z</time>
      </trkpt>
      <trkpt lat="45.10941" lon="2.64444">
        <ele>1563</ele>
        <time>2020-09-14T16:50:32Z</time>
      </trkpt>
      <trkpt lat="45.10933" lon="2.64449">
        <ele>1563</ele>
        <time>2020-09-14T16:50:43Z</time>
      </trkpt>
      <trkpt lat="45.10927" lon="2.64457">
        <ele>1563</ele>
        <time>2020-09-14T16:50:53Z</time>
      </trkpt>
      <trkpt lat="45.10923" lon="2.64467">
        <ele>1562</ele>
        <time>2020-09-14T16:51:03Z</time>
      </trkpt>
      <trkpt lat="45.10915" lon="2.64473">
        <ele>1562</ele>
        <time>2020-09-14T16:51:10Z</time>
      </trkpt>
      <trkpt lat="45.10912" lon="2.64484">
        <ele>1562</ele>
        <time>2020-09-14T16:51:23Z</time>
      </trkpt>
      <trkpt lat="45.10905" lon="2.64492">
        <ele>1562</ele>
        <time>2020-09-14T16:51:32Z</time>
      </trkpt>
      <trkpt lat="45.109" lon="2.64499">
        <ele>1561</ele>
        <time>2020-09-14T16:51:39Z</time>
      </trkpt>
      <trkpt lat="45.10894" lon="2.64507">
        <ele>1560</ele>
        <time>2020-09-14T16:51:44Z</time>
      </trkpt>
      <trkpt lat="45.10887" lon="2.64513">
        <ele>1559</ele>
        <time>2020-09-14T16:51:51Z</time>
      </trkpt>
      <trkpt lat="45.10883" lon="2.64523">
        <ele>1559</ele>
        <time>2020-09-14T16:52:01Z</time>
      </trkpt>
      <trkpt lat="45.10878" lon="2.64533">
        <ele>1560</ele>
        <time>2020-09-14T16:52:13Z</time>
      </trkpt>
      <trkpt lat="45.10871" lon="2.6454">
        <ele>1559</ele>
        <time>2020-09-14T16:52:21Z</time>
      </trkpt>
      <trkpt lat="45.10863" lon="2.64547">
        <ele>1558</ele>
        <time>2020-09-14T16:52:32Z</time>
      </trkpt>
      <trkpt lat="45.10856" lon="2.64553">
        <ele>1558</ele>
        <time>2020-09-14T16:52:43Z</time>
      </trkpt>
      <trkpt lat="45.10848" lon="2.64559">
        <ele>1560</ele>
        <time>2020-09-14T16:52:53Z</time>
      </trkpt>
      <trkpt lat="45.10842" lon="2.64562">
        <ele>1559</ele>
        <time>2020-09-14T16:53:00Z</time>
      </trkpt>
      <trkpt lat="45.10842" lon="2.64562">
        <ele>1559</ele>
        <time>2020-09-14T16:53:00Z</time>
      </trkpt>
      <trkpt lat="45.10841" lon="2.64564">
        <ele>1559</ele>
        <time>2020-09-14T16:53:18Z</time>
      </trkpt>
      <trkpt lat="45.10836" lon="2.64573">
        <ele>1561</ele>
        <time>2020-09-14T16:53:30Z</time>
      </trkpt>
      <trkpt lat="45.10831" lon="2.6458">
        <ele>1562</ele>
        <time>2020-09-14T16:53:40Z</time>
      </trkpt>
      <trkpt lat="45.10831" lon="2.6458">
        <ele>1562</ele>
        <time>2020-09-14T16:53:40Z</time>
      </trkpt>
      <trkpt lat="45.1083" lon="2.64581">
        <ele>1561</ele>
        <time>2020-09-14T16:53:48Z</time>
      </trkpt>
      <trkpt lat="45.10826" lon="2.64592">
        <ele>1562</ele>
        <time>2020-09-14T16:53:58Z</time>
      </trkpt>
      <trkpt lat="45.10821" lon="2.64603">
        <ele>1564</ele>
        <time>2020-09-14T16:54:09Z</time>
      </trkpt>
      <trkpt lat="45.10817" lon="2.64613">
        <ele>1564</ele>
        <time>2020-09-14T16:54:20Z</time>
      </trkpt>
      <trkpt lat="45.1081" lon="2.6462">
        <ele>1565</ele>
        <time>2020-09-14T16:54:30Z</time>
      </trkpt>
      <trkpt lat="45.10804" lon="2.64629">
        <ele>1565</ele>
        <time>2020-09-14T16:54:40Z</time>
      </trkpt>
      <trkpt lat="45.10798" lon="2.64637">
        <ele>1564</ele>
        <time>2020-09-14T16:54:53Z</time>
      </trkpt>
      <trkpt lat="45.10794" lon="2.64647">
        <ele>1562</ele>
        <time>2020-09-14T16:55:03Z</time>
      </trkpt>
      <trkpt lat="45.10786" lon="2.64653">
        <ele>1562</ele>
        <time>2020-09-14T16:55:11Z</time>
      </trkpt>
      <trkpt lat="45.1078" lon="2.64661">
        <ele>1562</ele>
        <time>2020-09-14T16:55:20Z</time>
      </trkpt>
      <trkpt lat="45.10773" lon="2.64669">
        <ele>1563</ele>
        <time>2020-09-14T16:55:29Z</time>
      </trkpt>
      <trkpt lat="45.10768" lon="2.64678">
        <ele>1562</ele>
        <time>2020-09-14T16:55:35Z</time>
      </trkpt>
      <trkpt lat="45.10764" lon="2.64689">
        <ele>1563</ele>
        <time>2020-09-14T16:55:43Z</time>
      </trkpt>
      <trkpt lat="45.10759" lon="2.64698">
        <ele>1563</ele>
        <time>2020-09-14T16:55:53Z</time>
      </trkpt>
      <trkpt lat="45.10753" lon="2.64706">
        <ele>1563</ele>
        <time>2020-09-14T16:56:04Z</time>
      </trkpt>
      <trkpt lat="45.10747" lon="2.64714">
        <ele>1563</ele>
        <time>2020-09-14T16:56:10Z</time>
      </trkpt>
      <trkpt lat="45.10741" lon="2.64722">
        <ele>1564</ele>
        <time>2020-09-14T16:56:21Z</time>
      </trkpt>
      <trkpt lat="45.10735" lon="2.64731">
        <ele>1564</ele>
        <time>2020-09-14T16:56:30Z</time>
      </trkpt>
      <trkpt lat="45.1073" lon="2.64739">
        <ele>1565</ele>
        <time>2020-09-14T16:56:37Z</time>
      </trkpt>
      <trkpt lat="45.10724" lon="2.64747">
        <ele>1565</ele>
        <time>2020-09-14T16:56:46Z</time>
      </trkpt>
      <trkpt lat="45.10718" lon="2.64756">
        <ele>1565</ele>
        <time>2020-09-14T16:56:56Z</time>
      </trkpt>
      <trkpt lat="45.10712" lon="2.64765">
        <ele>1567</ele>
        <time>2020-09-14T16:57:08Z</time>
      </trkpt>
      <trkpt lat="45.10707" lon="2.64774">
        <ele>1569</ele>
        <time>2020-09-14T16:57:22Z</time>
      </trkpt>
      <trkpt lat="45.10702" lon="2.64785">
        <ele>1571</ele>
        <time>2020-09-14T16:57:38Z</time>
      </trkpt>
      <trkpt lat="45.10696" lon="2.64793">
        <ele>1572</ele>
        <time>2020-09-14T16:57:51Z</time>
      </trkpt>
      <trkpt lat="45.10695" lon="2.64794">
        <ele>1572</ele>
        <time>2020-09-14T16:57:53Z</time>
      </trkpt>
      <trkpt lat="45.10695" lon="2.64794">
        <ele>1572</ele>
        <time>2020-09-14T16:57:54Z</time>
      </trkpt>
      <trkpt lat="45.10692" lon="2.64797">
        <ele>1573</ele>
        <time>2020-09-14T16:59:01Z</time>
      </trkpt>
      <trkpt lat="45.10688" lon="2.64808">
        <ele>1573</ele>
        <time>2020-09-14T16:59:16Z</time>
      </trkpt>
      <trkpt lat="45.10686" lon="2.64821">
        <ele>1575</ele>
        <time>2020-09-14T16:59:32Z</time>
      </trkpt>
      <trkpt lat="45.10682" lon="2.64831">
        <ele>1577</ele>
        <time>2020-09-14T16:59:45Z</time>
      </trkpt>
      <trkpt lat="45.10679" lon="2.64842">
        <ele>1580</ele>
        <time>2020-09-14T17:00:00Z</time>
      </trkpt>
      <trkpt lat="45.10676" lon="2.64853">
        <ele>1583</ele>
        <time>2020-09-14T17:00:16Z</time>
      </trkpt>
      <trkpt lat="45.10674" lon="2.64855">
        <ele>1583</ele>
        <time>2020-09-14T17:00:20Z</time>
      </trkpt>
      <trkpt lat="45.10674" lon="2.64855">
        <ele>1583</ele>
        <time>2020-09-14T17:00:20Z</time>
      </trkpt>
      <trkpt lat="45.10673" lon="2.64858">
        <ele>1584</ele>
        <time>2020-09-14T17:01:08Z</time>
      </trkpt>
      <trkpt lat="45.10668" lon="2.64869">
        <ele>1586</ele>
        <time>2020-09-14T17:01:25Z</time>
      </trkpt>
      <trkpt lat="45.10663" lon="2.64879">
        <ele>1588</ele>
        <time>2020-09-14T17:01:38Z</time>
      </trkpt>
      <trkpt lat="45.10659" lon="2.64889">
        <ele>1587</ele>
        <time>2020-09-14T17:01:49Z</time>
      </trkpt>
      <trkpt lat="45.10654" lon="2.649">
        <ele>1589</ele>
        <time>2020-09-14T17:02:05Z</time>
      </trkpt>
      <trkpt lat="45.10647" lon="2.64908">
        <ele>1589</ele>
        <time>2020-09-14T17:02:16Z</time>
      </trkpt>
      <trkpt lat="45.10647" lon="2.64908">
        <ele>1589</ele>
        <time>2020-09-14T17:02:17Z</time>
      </trkpt>
      <trkpt lat="45.10647" lon="2.64911">
        <ele>1589</ele>
        <time>2020-09-14T17:02:59Z</time>
      </trkpt>
      <trkpt lat="45.10644" lon="2.64921">
        <ele>1591</ele>
        <time>2020-09-14T17:03:14Z</time>
      </trkpt>
      <trkpt lat="45.10639" lon="2.64931">
        <ele>1593</ele>
        <time>2020-09-14T17:03:29Z</time>
      </trkpt>
      <trkpt lat="45.10635" lon="2.64941">
        <ele>1595</ele>
        <time>2020-09-14T17:03:44Z</time>
      </trkpt>
      <trkpt lat="45.10632" lon="2.64951">
        <ele>1596</ele>
        <time>2020-09-14T17:03:54Z</time>
      </trkpt>
      <trkpt lat="45.10627" lon="2.64962">
        <ele>1597</ele>
        <time>2020-09-14T17:04:10Z</time>
      </trkpt>
      <trkpt lat="45.10622" lon="2.64972">
        <ele>1599</ele>
        <time>2020-09-14T17:04:23Z</time>
      </trkpt>
      <trkpt lat="45.10617" lon="2.64982">
        <ele>1600</ele>
        <time>2020-09-14T17:04:38Z</time>
      </trkpt>
      <trkpt lat="45.10613" lon="2.64992">
        <ele>1600</ele>
        <time>2020-09-14T17:04:49Z</time>
      </trkpt>
      <trkpt lat="45.10606" lon="2.65">
        <ele>1601</ele>
        <time>2020-09-14T17:05:02Z</time>
      </trkpt>
      <trkpt lat="45.106" lon="2.65009">
        <ele>1602</ele>
        <time>2020-09-14T17:05:12Z</time>
      </trkpt>
      <trkpt lat="45.10593" lon="2.65017">
        <ele>1603</ele>
        <time>2020-09-14T17:05:21Z</time>
      </trkpt>
      <trkpt lat="45.10587" lon="2.65025">
        <ele>1602</ele>
        <time>2020-09-14T17:05:31Z</time>
      </trkpt>
      <trkpt lat="45.10581" lon="2.65032">
        <ele>1603</ele>
        <time>2020-09-14T17:05:41Z</time>
      </trkpt>
      <trkpt lat="45.10574" lon="2.6504">
        <ele>1603</ele>
        <time>2020-09-14T17:05:51Z</time>
      </trkpt>
      <trkpt lat="45.10567" lon="2.65047">
        <ele>1604</ele>
        <time>2020-09-14T17:06:02Z</time>
      </trkpt>
      <trkpt lat="45.1056" lon="2.65054">
        <ele>1606</ele>
        <time>2020-09-14T17:06:13Z</time>
      </trkpt>
      <trkpt lat="45.10552" lon="2.65058">
        <ele>1606</ele>
        <time>2020-09-14T17:06:23Z</time>
      </trkpt>
      <trkpt lat="45.10544" lon="2.65063">
        <ele>1606</ele>
        <time>2020-09-14T17:06:37Z</time>
      </trkpt>
      <trkpt lat="45.10536" lon="2.65069">
        <ele>1608</ele>
        <time>2020-09-14T17:06:54Z</time>
      </trkpt>
      <trkpt lat="45.10529" lon="2.65075">
        <ele>1608</ele>
        <time>2020-09-14T17:07:05Z</time>
      </trkpt>
      <trkpt lat="45.10523" lon="2.65083">
        <ele>1609</ele>
        <time>2020-09-14T17:07:17Z</time>
      </trkpt>
      <trkpt lat="45.10517" lon="2.65093">
        <ele>1608</ele>
        <time>2020-09-14T17:07:27Z</time>
      </trkpt>
      <trkpt lat="45.10514" lon="2.65105">
        <ele>1609</ele>
        <time>2020-09-14T17:07:37Z</time>
      </trkpt>
      <trkpt lat="45.10509" lon="2.65113">
        <ele>1610</ele>
        <time>2020-09-14T17:07:47Z</time>
      </trkpt>
      <trkpt lat="45.10501" lon="2.65119">
        <ele>1607</ele>
        <time>2020-09-14T17:07:56Z</time>
      </trkpt>
      <trkpt lat="45.10495" lon="2.65128">
        <ele>1608</ele>
        <time>2020-09-14T17:08:08Z</time>
      </trkpt>
      <trkpt lat="45.10488" lon="2.65135">
        <ele>1608</ele>
        <time>2020-09-14T17:08:18Z</time>
      </trkpt>
      <trkpt lat="45.10482" lon="2.6514">
        <ele>1608</ele>
        <time>2020-09-14T17:08:26Z</time>
      </trkpt>
      <trkpt lat="45.10482" lon="2.6514">
        <ele>1608</ele>
        <time>2020-09-14T17:08:26Z</time>
      </trkpt>
      <trkpt lat="45.10483" lon="2.6514">
        <ele>1607</ele>
        <time>2020-09-14T17:08:39Z</time>
      </trkpt>
      <trkpt lat="45.10476" lon="2.65146">
        <ele>1605</ele>
        <time>2020-09-14T17:08:46Z</time>
      </trkpt>
      <trkpt lat="45.1047" lon="2.65155">
        <ele>1604</ele>
        <time>2020-09-14T17:08:59Z</time>
      </trkpt>
      <trkpt lat="45.10464" lon="2.65165">
        <ele>1603</ele>
        <time>2020-09-14T17:09:10Z</time>
      </trkpt>
      <trkpt lat="45.10464" lon="2.65165">
        <ele>1603</ele>
        <time>2020-09-14T17:09:11Z</time>
      </trkpt>
      <trkpt lat="45.10464" lon="2.65165">
        <ele>1602</ele>
        <time>2020-09-14T17:16:31Z</time>
      </trkpt>
      <trkpt lat="45.10459" lon="2.65175">
        <ele>1602</ele>
        <time>2020-09-14T17:16:40Z</time>
      </trkpt>
      <trkpt lat="45.10454" lon="2.65185">
        <ele>1603</ele>
        <time>2020-09-14T17:16:48Z</time>
      </trkpt>
      <trkpt lat="45.1045" lon="2.65196">
        <ele>1603</ele>
        <time>2020-09-14T17:16:58Z</time>
      </trkpt>
      <trkpt lat="45.10444" lon="2.65204">
        <ele>1605</ele>
        <time>2020-09-14T17:17:07Z</time>
      </trkpt>
      <trkpt lat="45.10439" lon="2.65213">
        <ele>1606</ele>
        <time>2020-09-14T17:17:19Z</time>
      </trkpt>
      <trkpt lat="45.10435" lon="2.65224">
        <ele>1608</ele>
        <time>2020-09-14T17:17:31Z</time>
      </trkpt>
      <trkpt lat="45.10431" lon="2.65235">
        <ele>1610</ele>
        <time>2020-09-14T17:17:46Z</time>
      </trkpt>
      <trkpt lat="45.10425" lon="2.65244">
        <ele>1610</ele>
        <time>2020-09-14T17:18:01Z</time>
      </trkpt>
      <trkpt lat="45.10417" lon="2.65251">
        <ele>1612</ele>
        <time>2020-09-14T17:18:14Z</time>
      </trkpt>
      <trkpt lat="45.10414" lon="2.65255">
        <ele>1612</ele>
        <time>2020-09-14T17:18:22Z</time>
      </trkpt>
      <trkpt lat="45.10414" lon="2.65255">
        <ele>1612</ele>
        <time>2020-09-14T17:18:23Z</time>
      </trkpt>
      <trkpt lat="45.10413" lon="2.65255">
        <ele>1610</ele>
        <time>2020-09-14T17:19:04Z</time>
      </trkpt>
      <trkpt lat="45.10405" lon="2.65262">
        <ele>1612</ele>
        <time>2020-09-14T17:19:15Z</time>
      </trkpt>
      <trkpt lat="45.10399" lon="2.6527">
        <ele>1615</ele>
        <time>2020-09-14T17:19:25Z</time>
      </trkpt>
      <trkpt lat="45.10392" lon="2.65277">
        <ele>1615</ele>
        <time>2020-09-14T17:19:39Z</time>
      </trkpt>
      <trkpt lat="45.10384" lon="2.65281">
        <ele>1617</ele>
        <time>2020-09-14T17:19:48Z</time>
      </trkpt>
      <trkpt lat="45.10378" lon="2.65289">
        <ele>1619</ele>
        <time>2020-09-14T17:20:08Z</time>
      </trkpt>
      <trkpt lat="45.10371" lon="2.65291">
        <ele>1619</ele>
        <time>2020-09-14T17:20:16Z</time>
      </trkpt>
      <trkpt lat="45.10371" lon="2.65291">
        <ele>1619</ele>
        <time>2020-09-14T17:20:16Z</time>
      </trkpt>
      <trkpt lat="45.1037" lon="2.65292">
        <ele>1621</ele>
        <time>2020-09-14T17:21:08Z</time>
      </trkpt>
      <trkpt lat="45.10363" lon="2.653">
        <ele>1621</ele>
        <time>2020-09-14T17:21:20Z</time>
      </trkpt>
      <trkpt lat="45.10358" lon="2.65309">
        <ele>1623</ele>
        <time>2020-09-14T17:21:31Z</time>
      </trkpt>
      <trkpt lat="45.1035" lon="2.65315">
        <ele>1623</ele>
        <time>2020-09-14T17:21:42Z</time>
      </trkpt>
      <trkpt lat="45.10343" lon="2.65319">
        <ele>1625</ele>
        <time>2020-09-14T17:21:49Z</time>
      </trkpt>
      <trkpt lat="45.10335" lon="2.65324">
        <ele>1625</ele>
        <time>2020-09-14T17:22:03Z</time>
      </trkpt>
      <trkpt lat="45.10327" lon="2.65329">
        <ele>1625</ele>
        <time>2020-09-14T17:22:15Z</time>
      </trkpt>
      <trkpt lat="45.10319" lon="2.65334">
        <ele>1628</ele>
        <time>2020-09-14T17:22:29Z</time>
      </trkpt>
      <trkpt lat="45.10313" lon="2.65341">
        <ele>1630</ele>
        <time>2020-09-14T17:22:36Z</time>
      </trkpt>
      <trkpt lat="45.10304" lon="2.65345">
        <ele>1631</ele>
        <time>2020-09-14T17:22:48Z</time>
      </trkpt>
      <trkpt lat="45.10296" lon="2.65349">
        <ele>1631</ele>
        <time>2020-09-14T17:23:06Z</time>
      </trkpt>
      <trkpt lat="45.10289" lon="2.65355">
        <ele>1635</ele>
        <time>2020-09-14T17:23:33Z</time>
      </trkpt>
      <trkpt lat="45.10281" lon="2.6536">
        <ele>1638</ele>
        <time>2020-09-14T17:23:49Z</time>
      </trkpt>
      <trkpt lat="45.10273" lon="2.65364">
        <ele>1638</ele>
        <time>2020-09-14T17:24:02Z</time>
      </trkpt>
      <trkpt lat="45.10267" lon="2.65371">
        <ele>1640</ele>
        <time>2020-09-14T17:24:32Z</time>
      </trkpt>
      <trkpt lat="45.10259" lon="2.65376">
        <ele>1640</ele>
        <time>2020-09-14T17:24:39Z</time>
      </trkpt>
      <trkpt lat="45.10252" lon="2.65381">
        <ele>1639</ele>
        <time>2020-09-14T17:24:43Z</time>
      </trkpt>
      <trkpt lat="45.10247" lon="2.65383">
        <ele>1638</ele>
        <time>2020-09-14T17:24:48Z</time>
      </trkpt>
      <trkpt lat="45.10247" lon="2.65383">
        <ele>1638</ele>
        <time>2020-09-14T17:24:49Z</time>
      </trkpt>
      <trkpt lat="45.10247" lon="2.65385">
        <ele>1641</ele>
        <time>2020-09-14T17:32:36Z</time>
      </trkpt>
      <trkpt lat="45.10239" lon="2.65383">
        <ele>1641</ele>
        <time>2020-09-14T17:32:46Z</time>
      </trkpt>
      <trkpt lat="45.1023" lon="2.65383">
        <ele>1642</ele>
        <time>2020-09-14T17:32:56Z</time>
      </trkpt>
      <trkpt lat="45.10222" lon="2.6538">
        <ele>1643</ele>
        <time>2020-09-14T17:33:08Z</time>
      </trkpt>
      <trkpt lat="45.10215" lon="2.65373">
        <ele>1644</ele>
        <time>2020-09-14T17:33:17Z</time>
      </trkpt>
      <trkpt lat="45.10208" lon="2.65368">
        <ele>1645</ele>
        <time>2020-09-14T17:33:26Z</time>
      </trkpt>
      <trkpt lat="45.102" lon="2.65363">
        <ele>1646</ele>
        <time>2020-09-14T17:33:36Z</time>
      </trkpt>
      <trkpt lat="45.10192" lon="2.65358">
        <ele>1645</ele>
        <time>2020-09-14T17:33:47Z</time>
      </trkpt>
      <trkpt lat="45.10185" lon="2.6535">
        <ele>1645</ele>
        <time>2020-09-14T17:33:58Z</time>
      </trkpt>
      <trkpt lat="45.10178" lon="2.65342">
        <ele>1644</ele>
        <time>2020-09-14T17:34:11Z</time>
      </trkpt>
      <trkpt lat="45.10172" lon="2.65333">
        <ele>1646</ele>
        <time>2020-09-14T17:34:23Z</time>
      </trkpt>
      <trkpt lat="45.10172" lon="2.65333">
        <ele>1646</ele>
        <time>2020-09-14T17:34:24Z</time>
      </trkpt>
      <trkpt lat="45.10172" lon="2.65333">
        <ele>1646</ele>
        <time>2020-09-14T17:34:25Z</time>
      </trkpt>
      <trkpt lat="45.10171" lon="2.65332">
        <ele>1650</ele>
        <time>2020-09-14T17:34:44Z</time>
      </trkpt>
      <trkpt lat="45.10165" lon="2.65323">
        <ele>1652</ele>
        <time>2020-09-14T17:34:59Z</time>
      </trkpt>
      <trkpt lat="45.10158" lon="2.65315">
        <ele>1656</ele>
        <time>2020-09-14T17:35:15Z</time>
      </trkpt>
      <trkpt lat="45.10152" lon="2.65309">
        <ele>1658</ele>
        <time>2020-09-14T17:35:33Z</time>
      </trkpt>
      <trkpt lat="45.10143" lon="2.65307">
        <ele>1657</ele>
        <time>2020-09-14T17:35:40Z</time>
      </trkpt>
      <trkpt lat="45.10135" lon="2.65303">
        <ele>1657</ele>
        <time>2020-09-14T17:35:51Z</time>
      </trkpt>
      <trkpt lat="45.10128" lon="2.65297">
        <ele>1659</ele>
        <time>2020-09-14T17:36:02Z</time>
      </trkpt>
      <trkpt lat="45.10119" lon="2.65293">
        <ele>1660</ele>
        <time>2020-09-14T17:36:14Z</time>
      </trkpt>
      <trkpt lat="45.10111" lon="2.65289">
        <ele>1659</ele>
        <time>2020-09-14T17:36:26Z</time>
      </trkpt>
      <trkpt lat="45.10104" lon="2.65283">
        <ele>1661</ele>
        <time>2020-09-14T17:36:42Z</time>
      </trkpt>
      <trkpt lat="45.10097" lon="2.65278">
        <ele>1663</ele>
        <time>2020-09-14T17:36:57Z</time>
      </trkpt>
      <trkpt lat="45.10089" lon="2.65273">
        <ele>1664</ele>
        <time>2020-09-14T17:37:11Z</time>
      </trkpt>
      <trkpt lat="45.10081" lon="2.6527">
        <ele>1665</ele>
        <time>2020-09-14T17:37:26Z</time>
      </trkpt>
      <trkpt lat="45.10073" lon="2.65264">
        <ele>1666</ele>
        <time>2020-09-14T17:37:38Z</time>
      </trkpt>
      <trkpt lat="45.10068" lon="2.65255">
        <ele>1667</ele>
        <time>2020-09-14T17:37:48Z</time>
      </trkpt>
      <trkpt lat="45.10062" lon="2.65248">
        <ele>1666</ele>
        <time>2020-09-14T17:37:56Z</time>
      </trkpt>
      <trkpt lat="45.10055" lon="2.65241">
        <ele>1666</ele>
        <time>2020-09-14T17:38:07Z</time>
      </trkpt>
      <trkpt lat="45.10049" lon="2.65232">
        <ele>1667</ele>
        <time>2020-09-14T17:38:18Z</time>
      </trkpt>
      <trkpt lat="45.10043" lon="2.65224">
        <ele>1666</ele>
        <time>2020-09-14T17:38:27Z</time>
      </trkpt>
      <trkpt lat="45.10035" lon="2.65217">
        <ele>1666</ele>
        <time>2020-09-14T17:38:37Z</time>
      </trkpt>
      <trkpt lat="45.10029" lon="2.65209">
        <ele>1666</ele>
        <time>2020-09-14T17:38:47Z</time>
      </trkpt>
      <trkpt lat="45.10024" lon="2.65199">
        <ele>1666</ele>
        <time>2020-09-14T17:38:58Z</time>
      </trkpt>
      <trkpt lat="45.1002" lon="2.65188">
        <ele>1667</ele>
        <time>2020-09-14T17:39:07Z</time>
      </trkpt>
      <trkpt lat="45.10017" lon="2.65177">
        <ele>1668</ele>
        <time>2020-09-14T17:39:15Z</time>
      </trkpt>
      <trkpt lat="45.10011" lon="2.65168">
        <ele>1669</ele>
        <time>2020-09-14T17:39:26Z</time>
      </trkpt>
      <trkpt lat="45.10006" lon="2.65158">
        <ele>1670</ele>
        <time>2020-09-14T17:39:36Z</time>
      </trkpt>
      <trkpt lat="45.10004" lon="2.65147">
        <ele>1670</ele>
        <time>2020-09-14T17:39:46Z</time>
      </trkpt>
      <trkpt lat="45.09999" lon="2.65138">
        <ele>1670</ele>
        <time>2020-09-14T17:39:55Z</time>
      </trkpt>
      <trkpt lat="45.09996" lon="2.65127">
        <ele>1671</ele>
        <time>2020-09-14T17:40:04Z</time>
      </trkpt>
      <trkpt lat="45.09992" lon="2.65117">
        <ele>1670</ele>
        <time>2020-09-14T17:40:13Z</time>
      </trkpt>
      <trkpt lat="45.09986" lon="2.65109">
        <ele>1671</ele>
        <time>2020-09-14T17:40:23Z</time>
      </trkpt>
      <trkpt lat="45.09981" lon="2.65099">
        <ele>1673</ele>
        <time>2020-09-14T17:40:35Z</time>
      </trkpt>
      <trkpt lat="45.09976" lon="2.65091">
        <ele>1673</ele>
        <time>2020-09-14T17:40:44Z</time>
      </trkpt>
      <trkpt lat="45.09971" lon="2.65082">
        <ele>1675</ele>
        <time>2020-09-14T17:40:53Z</time>
      </trkpt>
      <trkpt lat="45.09965" lon="2.65074">
        <ele>1675</ele>
        <time>2020-09-14T17:41:02Z</time>
      </trkpt>
      <trkpt lat="45.09961" lon="2.65064">
        <ele>1675</ele>
        <time>2020-09-14T17:41:12Z</time>
      </trkpt>
      <trkpt lat="45.09956" lon="2.65054">
        <ele>1675</ele>
        <time>2020-09-14T17:41:22Z</time>
      </trkpt>
      <trkpt lat="45.0995" lon="2.65044">
        <ele>1676</ele>
        <time>2020-09-14T17:41:33Z</time>
      </trkpt>
      <trkpt lat="45.09948" lon="2.65032">
        <ele>1675</ele>
        <time>2020-09-14T17:41:44Z</time>
      </trkpt>
      <trkpt lat="45.09946" lon="2.65019">
        <ele>1675</ele>
        <time>2020-09-14T17:41:54Z</time>
      </trkpt>
      <trkpt lat="45.09942" lon="2.65009">
        <ele>1676</ele>
        <time>2020-09-14T17:42:04Z</time>
      </trkpt>
      <trkpt lat="45.09941" lon="2.64997">
        <ele>1675</ele>
        <time>2020-09-14T17:42:14Z</time>
      </trkpt>
      <trkpt lat="45.09939" lon="2.64985">
        <ele>1674</ele>
        <time>2020-09-14T17:42:24Z</time>
      </trkpt>
      <trkpt lat="45.09937" lon="2.64974">
        <ele>1673</ele>
        <time>2020-09-14T17:42:35Z</time>
      </trkpt>
      <trkpt lat="45.09937" lon="2.64974">
        <ele>1673</ele>
        <time>2020-09-14T17:42:35Z</time>
      </trkpt>
      <trkpt lat="45.09936" lon="2.64972">
        <ele>1673</ele>
        <time>2020-09-14T17:43:27Z</time>
      </trkpt>
      <trkpt lat="45.09931" lon="2.64963">
        <ele>1675</ele>
        <time>2020-09-14T17:43:40Z</time>
      </trkpt>
      <trkpt lat="45.09925" lon="2.64954">
        <ele>1677</ele>
        <time>2020-09-14T17:43:50Z</time>
      </trkpt>
      <trkpt lat="45.09923" lon="2.64944">
        <ele>1677</ele>
        <time>2020-09-14T17:43:59Z</time>
      </trkpt>
      <trkpt lat="45.09918" lon="2.64935">
        <ele>1677</ele>
        <time>2020-09-14T17:44:09Z</time>
      </trkpt>
      <trkpt lat="45.09915" lon="2.64923">
        <ele>1676</ele>
        <time>2020-09-14T17:44:20Z</time>
      </trkpt>
      <trkpt lat="45.0991" lon="2.64913">
        <ele>1676</ele>
        <time>2020-09-14T17:44:29Z</time>
      </trkpt>
      <trkpt lat="45.09907" lon="2.64902">
        <ele>1676</ele>
        <time>2020-09-14T17:44:39Z</time>
      </trkpt>
      <trkpt lat="45.09904" lon="2.64891">
        <ele>1677</ele>
        <time>2020-09-14T17:44:48Z</time>
      </trkpt>
      <trkpt lat="45.09899" lon="2.6488">
        <ele>1677</ele>
        <time>2020-09-14T17:44:57Z</time>
      </trkpt>
      <trkpt lat="45.09896" lon="2.6487">
        <ele>1676</ele>
        <time>2020-09-14T17:45:05Z</time>
      </trkpt>
      <trkpt lat="45.09891" lon="2.6486">
        <ele>1676</ele>
        <time>2020-09-14T17:45:14Z</time>
      </trkpt>
      <trkpt lat="45.09887" lon="2.6485">
        <ele>1677</ele>
        <time>2020-09-14T17:45:21Z</time>
      </trkpt>
      <trkpt lat="45.09882" lon="2.6484">
        <ele>1676</ele>
        <time>2020-09-14T17:45:29Z</time>
      </trkpt>
      <trkpt lat="45.09876" lon="2.64831">
        <ele>1677</ele>
        <time>2020-09-14T17:45:38Z</time>
      </trkpt>
      <trkpt lat="45.09869" lon="2.64825">
        <ele>1676</ele>
        <time>2020-09-14T17:45:46Z</time>
      </trkpt>
      <trkpt lat="45.09863" lon="2.64817">
        <ele>1676</ele>
        <time>2020-09-14T17:45:55Z</time>
      </trkpt>
      <trkpt lat="45.09857" lon="2.64809">
        <ele>1676</ele>
        <time>2020-09-14T17:46:04Z</time>
      </trkpt>
      <trkpt lat="45.09851" lon="2.64801">
        <ele>1677</ele>
        <time>2020-09-14T17:46:13Z</time>
      </trkpt>
      <trkpt lat="45.0985" lon="2.64789">
        <ele>1676</ele>
        <time>2020-09-14T17:46:23Z</time>
      </trkpt>
      <trkpt lat="45.09844" lon="2.64781">
        <ele>1677</ele>
        <time>2020-09-14T17:46:32Z</time>
      </trkpt>
      <trkpt lat="45.09838" lon="2.64772">
        <ele>1678</ele>
        <time>2020-09-14T17:46:41Z</time>
      </trkpt>
      <trkpt lat="45.09836" lon="2.64761">
        <ele>1678</ele>
        <time>2020-09-14T17:46:50Z</time>
      </trkpt>
      <trkpt lat="45.09836" lon="2.64748">
        <ele>1677</ele>
        <time>2020-09-14T17:46:59Z</time>
      </trkpt>
      <trkpt lat="45.09835" lon="2.64736">
        <ele>1678</ele>
        <time>2020-09-14T17:47:09Z</time>
      </trkpt>
      <trkpt lat="45.0983" lon="2.64727">
        <ele>1679</ele>
        <time>2020-09-14T17:47:20Z</time>
      </trkpt>
      <trkpt lat="45.09824" lon="2.64719">
        <ele>1680</ele>
        <time>2020-09-14T17:47:34Z</time>
      </trkpt>
      <trkpt lat="45.09818" lon="2.64712">
        <ele>1682</ele>
        <time>2020-09-14T17:47:47Z</time>
      </trkpt>
      <trkpt lat="45.09813" lon="2.64705">
        <ele>1694</ele>
        <time>2020-09-14T17:47:52Z</time>
      </trkpt>
      <trkpt lat="45.09805" lon="2.64695">
        <ele>1711</ele>
        <time>2020-09-14T17:47:57Z</time>
      </trkpt>
      <trkpt lat="45.09805" lon="2.64688">
        <ele>1698</ele>
        <time>2020-09-14T17:48:17Z</time>
      </trkpt>
      <trkpt lat="45.09805" lon="2.64688">
        <ele>1698</ele>
        <time>2020-09-14T17:48:18Z</time>
      </trkpt>
      <trkpt lat="45.09807" lon="2.64679">
        <ele>1691</ele>
        <time>2020-09-14T17:53:04Z</time>
      </trkpt>
      <trkpt lat="45.09802" lon="2.6467">
        <ele>1688</ele>
        <time>2020-09-14T17:53:17Z</time>
      </trkpt>
      <trkpt lat="45.09797" lon="2.6466">
        <ele>1688</ele>
        <time>2020-09-14T17:53:24Z</time>
      </trkpt>
      <trkpt lat="45.0979" lon="2.64652">
        <ele>1689</ele>
        <time>2020-09-14T17:53:33Z</time>
      </trkpt>
      <trkpt lat="45.09787" lon="2.64641">
        <ele>1689</ele>
        <time>2020-09-14T17:53:49Z</time>
      </trkpt>
      <trkpt lat="45.09783" lon="2.64631">
        <ele>1688</ele>
        <time>2020-09-14T17:53:57Z</time>
      </trkpt>
      <trkpt lat="45.09781" lon="2.64626">
        <ele>1690</ele>
        <time>2020-09-14T17:54:02Z</time>
      </trkpt>
      <trkpt lat="45.09781" lon="2.64626">
        <ele>1690</ele>
        <time>2020-09-14T17:54:03Z</time>
      </trkpt>
      <trkpt lat="45.0978" lon="2.64623">
        <ele>1689</ele>
        <time>2020-09-14T17:54:14Z</time>
      </trkpt>
      <trkpt lat="45.09775" lon="2.64614">
        <ele>1690</ele>
        <time>2020-09-14T17:54:24Z</time>
      </trkpt>
      <trkpt lat="45.09771" lon="2.64605">
        <ele>1691</ele>
        <time>2020-09-14T17:54:32Z</time>
      </trkpt>
      <trkpt lat="45.09771" lon="2.64605">
        <ele>1691</ele>
        <time>2020-09-14T17:54:33Z</time>
      </trkpt>
      <trkpt lat="45.0977" lon="2.64604">
        <ele>1692</ele>
        <time>2020-09-14T17:54:53Z</time>
      </trkpt>
      <trkpt lat="45.09764" lon="2.64608">
        <ele>1694</ele>
        <time>2020-09-14T17:55:10Z</time>
      </trkpt>
      <trkpt lat="45.09764" lon="2.64608">
        <ele>1694</ele>
        <time>2020-09-14T17:55:11Z</time>
      </trkpt>
      <trkpt lat="45.09766" lon="2.64605">
        <ele>1698</ele>
        <time>2020-09-14T17:55:43Z</time>
      </trkpt>
      <trkpt lat="45.09767" lon="2.64593">
        <ele>1696</ele>
        <time>2020-09-14T17:55:59Z</time>
      </trkpt>
      <trkpt lat="45.09765" lon="2.64581">
        <ele>1695</ele>
        <time>2020-09-14T17:56:08Z</time>
      </trkpt>
      <trkpt lat="45.09763" lon="2.6457">
        <ele>1696</ele>
        <time>2020-09-14T17:56:18Z</time>
      </trkpt>
      <trkpt lat="45.09763" lon="2.6457">
        <ele>1696</ele>
        <time>2020-09-14T17:56:19Z</time>
      </trkpt>
      <trkpt lat="45.09763" lon="2.6457">
        <ele>1697</ele>
        <time>2020-09-14T17:56:34Z</time>
      </trkpt>
      <trkpt lat="45.09756" lon="2.64576">
        <ele>1701</ele>
        <time>2020-09-14T17:56:52Z</time>
      </trkpt>
      <trkpt lat="45.0975" lon="2.64585">
        <ele>1703</ele>
        <time>2020-09-14T17:57:14Z</time>
      </trkpt>
      <trkpt lat="45.09747" lon="2.64585">
        <ele>1705</ele>
        <time>2020-09-14T17:57:19Z</time>
      </trkpt>
      <trkpt lat="45.09747" lon="2.64585">
        <ele>1705</ele>
        <time>2020-09-14T17:57:20Z</time>
      </trkpt>
      <trkpt lat="45.09744" lon="2.64582">
        <ele>1706</ele>
        <time>2020-09-14T17:57:41Z</time>
      </trkpt>
      <trkpt lat="45.09736" lon="2.64578">
        <ele>1707</ele>
        <time>2020-09-14T17:57:50Z</time>
      </trkpt>
      <trkpt lat="45.09729" lon="2.64574">
        <ele>1707</ele>
        <time>2020-09-14T17:57:59Z</time>
      </trkpt>
      <trkpt lat="45.09722" lon="2.64566">
        <ele>1708</ele>
        <time>2020-09-14T17:58:13Z</time>
      </trkpt>
      <trkpt lat="45.09715" lon="2.6456">
        <ele>1709</ele>
        <time>2020-09-14T17:58:26Z</time>
      </trkpt>
      <trkpt lat="45.0971" lon="2.64556">
        <ele>1710</ele>
        <time>2020-09-14T17:58:33Z</time>
      </trkpt>
      <trkpt lat="45.0971" lon="2.64556">
        <ele>1710</ele>
        <time>2020-09-14T17:58:34Z</time>
      </trkpt>
    </trkseg>
  </trk>
</gpx>